Hub


Voltar

 INFORMAÇÕES METEOROLÓGICAS

METAR FOR KALM


ADDS - METARS form results

(0716 UTC 22 April 2019)
Data provider http://aviationweather.gov/metar/data/
 
METAR text: KALM 220655Z AUTO 22006KT 10SM CLR 18/M02 A2997 RMK AO2
Conditions at: KALM (ALAMOGORDO WHITE, NM, US) observed 0655 UTC 22 April 2019
Temperature: 18.0°C (64°F)
Dewpoint: -2.0°C (28°F) [RH = 26%]
Pressure (altimeter): 29.97 inches Hg (1015.0 mb)
Winds: from the SW (220 degrees) at 7 MPH (6 knots; 3.1 m/s)
Visibility: 10 or more miles (16+ km)
Ceiling: at least 12,000 feet AGL
Clouds: sky clear below 12,000 feet AGL
Weather: automated observation with no human augmentation;
there may or may not be significant weather present at this time

METAR text: KALM 220635Z AUTO 16010KT 10SM CLR 15/00 A2997 RMK AO2
Conditions at: KALM (ALAMOGORDO WHITE, NM, US) observed 0635 UTC 22 April 2019
Temperature: 15.0°C (59°F)
Dewpoint: 0.0°C (32°F) [RH = 36%]
Pressure (altimeter): 29.97 inches Hg (1015.0 mb)
Winds: from the SSE (160 degrees) at 12 MPH (10 knots; 5.1 m/s)
Visibility: 10 or more miles (16+ km)
Ceiling: at least 12,000 feet AGL
Clouds: sky clear below 12,000 feet AGL
Weather: automated observation with no human augmentation;
there may or may not be significant weather present at this time


 MAPA DO AEROPORTO


 INFORMAÇÕES DA PISTA

Pista 03 Tamanho da pista 7006 ft Largura da pista 150 ft
Elevação da pista 4144 ft Ranhura da pista 0 ft Proa da pista 46
Pista 21 Tamanho da pista 7006 ft Largura da pista 150 ft
Elevação da pista 4200 ft Ranhura da pista 0 ft Proa da pista 226
Pista 16 Tamanho da pista 3512 ft Largura da pista 200 ft
Elevação da pista 4200 ft Ranhura da pista 0 ft Proa da pista 173
Pista 34 Tamanho da pista 3512 ft Largura da pista 200 ft
Elevação da pista 4200 ft Ranhura da pista 0 ft Proa da pista 353

 FREQUÊNCIAS DO AEROPORTO

Tipo APP Nome HOLLOMAN A Frequência 120.6 MHZ
Tipo AWOS Nome AWOS 3 Frequência 127.825 MHZ
Tipo DEP Nome HOLLOMAN D Frequência 128.1 MHZ
Tipo RDO Nome ALBUQUERQU Frequência 122.15 MHZ
Tipo UNIC Nome CTAF/UNICO Frequência 122.8 MHZ

 AUXÍLIOS DE NAVEGAÇÃO PRÓXIMOS AO AEROPORTO

Tipo VOR-DME Nome Boles Frequência 109600 KHZ